Arklow Spray — C6VK8 — position and weather

sailwx.info

Track history (hours):
 
Tides and Currents Weather Stations Pressure Air Temp Water Temp Dewpoint Dewpoint Depression Visibility Wind Speed Wind Dir Waves Ship Positions

Arklow Spray

Last reported at 2015-Jun-30 00:09 UTC. Time now 2015-Jul-04 05:03 UTC.
Position N 35°54' W 008°43'.

Length 90 m; draft 4.5 m.

Type: Cargo ship. MMSI: 309914000.

Date/timePositionNaut miles runAvg speedWind from/ knotsBaromVisibWave heightAir tempDewpointWater temp
2015-Jun-30 00:09N 35°54' W 008°43'710.8
2015-Jun-29 23:33N 35°60' W 008°46'1110.9
2015-Jun-29 22:32N 36°10' W 008°51'1110.8
2015-Jun-29 21:33N 36°20' W 008°56'9 9.4
2015-Jun-29 20:33N 36°28' W 009°02'7 7.3
2015-Jun-29 19:33N 36°31' W 009°10'8 7.4
2015-Jun-29 18:25N 36°35' W 009°19'8 8.7
2015-Jun-29 17:29N 36°41' W 009°26'1011.1
2015-Jun-29 16:33N 36°49' W 009°33'1110.8
2015-Jun-29 15:33N 36°60' W 009°37'1110.9
2015-Jun-29 14:34N 37°10' W 009°40'1110.7
2015-Jun-29 13:33N 37°21' W 009°44'1110.6
2015-Jun-29 12:33N 37°31' W 009°47'1111.0
2015-Jun-29 11:33N 37°42' W 009°50'1111.2
2015-Jun-29 10:33N 37°53' W 009°53'1111.3
2015-Jun-29 09:33N 38°04' W 009°56'1111.0
2015-Jun-29 08:33N 38°15' W 009°59'1110.9
2015-Jun-29 07:33N 38°25' W 010°03'1110.7
2015-Jun-29 06:33N 38°35' W 010°05'1010.3
2015-Jun-29 05:33N 38°46' W 010°07'1010.2
2015-Jun-29 04:33N 38°56' W 010°07'1110.7
2015-Jun-29 03:33N 39°07' W 010°07'1110.6
2015-Jun-29 02:33N 39°17' W 010°07'1010.1
2015-Jun-29 01:33N 39°27' W 010°07'1010.3
2015-Jun-29 00:33N 39°38' W 010°08'1010.3
2015-Jun-28 23:33N 39°48' W 010°08'1010.4
2015-Jun-28 22:33N 39°58' W 010°07'1110.6
2015-Jun-28 21:33N 40°09' W 010°07'1110.5
2015-Jun-28 20:33N 40°20' W 010°07'1110.7
2015-Jun-28 19:33N 40°30' W 010°07'1110.6
2015-Jun-28 18:33N 40°41' W 010°07'1110.7
2015-Jun-28 17:33N 40°51' W 010°07'1110.6
2015-Jun-28 16:29N 41°03' W 010°07'1010.5
2015-Jun-28 15:34N 41°12' W 010°07'1110.8
2015-Jun-28 14:34N 41°23' W 010°07'1310.8
2015-Jun-28 13:20N 41°37' W 010°07'2210.5
2015-Jun-28 11:14N 41°59' W 010°07'710.4
2015-Jun-28 10:33N 42°06' W 010°08'220 8.4
2015-Jun-27 08:30N 43°50' W 005°43'1110.1
2015-Jun-27 07:27N 43°49' W 005°29'910.1
2015-Jun-27 06:31N 43°48' W 005°16'113 5.8
2015-Jun-26 11:07N 43°25' W 002°43'0 0.0
2015-Jun-26 10:32N 43°25' W 002°43'0 0.0
2015-Jun-26 09:33N 43°25' W 002°43'0 0.0
2015-Jun-26 08:32N 43°25' W 002°43'0 0.0
2015-Jun-26 07:33N 43°25' W 002°43'0 0.0
2015-Jun-26 06:30N 43°25' W 002°43'0 0.0
2015-Jun-26 05:31N 43°25' W 002°43'0 0.0
2015-Jun-26 04:33N 43°25' W 002°43'0 0.0
2015-Jun-26 03:33N 43°25' W 002°43'0 0.0
2015-Jun-26 02:33N 43°25' W 002°43'0 0.0
2015-Jun-26 01:33N 43°25' W 002°43'0 0.0
2015-Jun-26 00:32N 43°25' W 002°43'0 0.0
2015-Jun-25 19:28N 43°25' W 002°43'0 0.0
2015-Jun-25 18:28N 43°25' W 002°43'0 0.0
2015-Jun-25 11:32N 43°25' W 002°43'0 0.0
2015-Jun-25 10:17N 43°25' W 002°43'45 4.6
2015-Jun-25 00:30N 44°08' W 002°23'8 7.9
2015-Jun-24 23:33N 44°15' W 002°20'8 8.1
2015-Jun-24 22:33N 44°23' W 002°16'8 7.9
2015-Jun-24 21:32N 44°30' W 002°12'8 7.8
2015-Jun-24 20:34N 44°38' W 002°09'8 8.2
2015-Jun-24 19:34N 44°45' W 002°05'8 8.0
2015-Jun-24 18:33N 44°53' W 002°02'8 7.9
2015-Jun-24 17:33N 45°00' W 001°58'8 7.7
2015-Jun-24 16:33N 45°08' W 001°55'5410.8
2015-Jun-24 11:34N 45°59' W 001°31'9 9.2
2015-Jun-24 10:34N 46°06' W 001°22'1110.6
2015-Jun-24 09:33N 45°60' W 001°09'  
2015-Jun-21 22:32N 45°57' W 000°57'2 0.5
2015-Jun-21 18:20N 45°55' W 000°60'4 5.5
2015-Jun-21 17:34N 45°57' W 001°05'9 9.3
2015-Jun-21 16:33N 46°04' W 001°14'0 0.3
2015-Jun-21 15:33N 46°04' W 001°14'1 0.6
2015-Jun-21 14:33N 46°04' W 001°14'1111.3
2015-Jun-21 13:33N 46°07' W 001°30'1010.4
2015-Jun-21 12:33N 46°07' W 001°45'1010.2
2015-Jun-21 11:33N 46°03' W 001°58'6710.4
2015-Jun-21 05:04N 45°34' W 003°25'510.8
2015-Jun-21 04:33N 45°31' W 003°32'1110.3
2015-Jun-21 03:31N 45°27' W 003°46'1010.4
2015-Jun-21 02:33N 45°23' W 003°59'1110.7
2015-Jun-21 01:29N 45°17' W 004°14'1010.6
2015-Jun-21 00:33N 45°13' W 004°26'1110.4
2015-Jun-20 23:33N 45°09' W 004°40'31 9.9
2015-Jun-20 20:23N 44°55' W 005°20'2910.1
2015-Jun-20 17:32N 44°43' W 005°56'2010.3
2015-Jun-20 15:33N 44°34' W 006°22'1010.0
2015-Jun-20 14:33N 44°30' W 006°35'2110.2
2015-Jun-20 12:32N 44°21' W 007°00'1010.1
2015-Jun-20 11:32N 44°17' W 007°14'21 9.9
2015-Jun-20 09:24N 44°07' W 007°40'  
Track history (hours):
 
Tides and Currents Weather Stations Pressure Air Temp Water Temp Dewpoint Dewpoint Depression Visibility Wind Speed Wind Dir Waves Ship Positions

Arklow Spray

Last reported at 2015-Jun-30 00:09 UTC. Time now 2015-Jul-04 05:03 UTC.
Position N 35°54' W 008°43'.

Length 90 m; draft 4.5 m.

Type: Cargo ship. MMSI: 309914000.

Date/timePositionNaut miles runAvg speedWind from/ knotsBaromVisibWave heightAir tempDewpointWater temp
2015-Jun-30 00:09N 35°54' W 008°43'710.8
2015-Jun-29 23:33N 35°60' W 008°46'1110.9
2015-Jun-29 22:32N 36°10' W 008°51'1110.8
2015-Jun-29 21:33N 36°20' W 008°56'9 9.4
2015-Jun-29 20:33N 36°28' W 009°02'7 7.3
2015-Jun-29 19:33N 36°31' W 009°10'8 7.4
2015-Jun-29 18:25N 36°35' W 009°19'8 8.7
2015-Jun-29 17:29N 36°41' W 009°26'1011.1
2015-Jun-29 16:33N 36°49' W 009°33'1110.8
2015-Jun-29 15:33N 36°60' W 009°37'1110.9
2015-Jun-29 14:34N 37°10' W 009°40'1110.7
2015-Jun-29 13:33N 37°21' W 009°44'1110.6
2015-Jun-29 12:33N 37°31' W 009°47'1111.0
2015-Jun-29 11:33N 37°42' W 009°50'1111.2
2015-Jun-29 10:33N 37°53' W 009°53'1111.3
2015-Jun-29 09:33N 38°04' W 009°56'1111.0
2015-Jun-29 08:33N 38°15' W 009°59'1110.9
2015-Jun-29 07:33N 38°25' W 010°03'1110.7
2015-Jun-29 06:33N 38°35' W 010°05'1010.3
2015-Jun-29 05:33N 38°46' W 010°07'1010.2
2015-Jun-29 04:33N 38°56' W 010°07'1110.7
2015-Jun-29 03:33N 39°07' W 010°07'1110.6
2015-Jun-29 02:33N 39°17' W 010°07'1010.1
2015-Jun-29 01:33N 39°27' W 010°07'1010.3
2015-Jun-29 00:33N 39°38' W 010°08'1010.3
2015-Jun-28 23:33N 39°48' W 010°08'1010.4
2015-Jun-28 22:33N 39°58' W 010°07'1110.6
2015-Jun-28 21:33N 40°09' W 010°07'1110.5
2015-Jun-28 20:33N 40°20' W 010°07'1110.7
2015-Jun-28 19:33N 40°30' W 010°07'1110.6
2015-Jun-28 18:33N 40°41' W 010°07'1110.7
2015-Jun-28 17:33N 40°51' W 010°07'1110.6
2015-Jun-28 16:29N 41°03' W 010°07'1010.5
2015-Jun-28 15:34N 41°12' W 010°07'1110.8
2015-Jun-28 14:34N 41°23' W 010°07'1310.8
2015-Jun-28 13:20N 41°37' W 010°07'2210.5
2015-Jun-28 11:14N 41°59' W 010°07'710.4
2015-Jun-28 10:33N 42°06' W 010°08'220 8.4
2015-Jun-27 08:30N 43°50' W 005°43'1110.1
2015-Jun-27 07:27N 43°49' W 005°29'910.1
2015-Jun-27 06:31N 43°48' W 005°16'113 5.8
2015-Jun-26 11:07N 43°25' W 002°43'0 0.0
2015-Jun-26 10:32N 43°25' W 002°43'0 0.0
2015-Jun-26 09:33N 43°25' W 002°43'0 0.0
2015-Jun-26 08:32N 43°25' W 002°43'0 0.0
2015-Jun-26 07:33N 43°25' W 002°43'0 0.0
2015-Jun-26 06:30N 43°25' W 002°43'0 0.0
2015-Jun-26 05:31N 43°25' W 002°43'0 0.0
2015-Jun-26 04:33N 43°25' W 002°43'0 0.0
2015-Jun-26 03:33N 43°25' W 002°43'0 0.0
2015-Jun-26 02:33N 43°25' W 002°43'0 0.0
2015-Jun-26 01:33N 43°25' W 002°43'0 0.0
2015-Jun-26 00:32N 43°25' W 002°43'0 0.0
2015-Jun-25 19:28N 43°25' W 002°43'0 0.0
2015-Jun-25 18:28N 43°25' W 002°43'0 0.0
2015-Jun-25 11:32N 43°25' W 002°43'0 0.0
2015-Jun-25 10:17N 43°25' W 002°43'45 4.6
2015-Jun-25 00:30N 44°08' W 002°23'8 7.9
2015-Jun-24 23:33N 44°15' W 002°20'8 8.1
2015-Jun-24 22:33N 44°23' W 002°16'8 7.9
2015-Jun-24 21:32N 44°30' W 002°12'8 7.8
2015-Jun-24 20:34N 44°38' W 002°09'8 8.2
2015-Jun-24 19:34N 44°45' W 002°05'8 8.0
2015-Jun-24 18:33N 44°53' W 002°02'8 7.9
2015-Jun-24 17:33N 45°00' W 001°58'8 7.7
2015-Jun-24 16:33N 45°08' W 001°55'5410.8
2015-Jun-24 11:34N 45°59' W 001°31'9 9.2
2015-Jun-24 10:34N 46°06' W 001°22'1110.6
2015-Jun-24 09:33N 45°60' W 001°09'  
2015-Jun-21 22:32N 45°57' W 000°57'2 0.5
2015-Jun-21 18:20N 45°55' W 000°60'4 5.5
2015-Jun-21 17:34N 45°57' W 001°05'9 9.3
2015-Jun-21 16:33N 46°04' W 001°14'0 0.3
2015-Jun-21 15:33N 46°04' W 001°14'1 0.6
2015-Jun-21 14:33N 46°04' W 001°14'1111.3
2015-Jun-21 13:33N 46°07' W 001°30'1010.4
2015-Jun-21 12:33N 46°07' W 001°45'1010.2
2015-Jun-21 11:33N 46°03' W 001°58'6710.4
2015-Jun-21 05:04N 45°34' W 003°25'510.8
2015-Jun-21 04:33N 45°31' W 003°32'1110.3
2015-Jun-21 03:31N 45°27' W 003°46'1010.4
2015-Jun-21 02:33N 45°23' W 003°59'1110.7
2015-Jun-21 01:29N 45°17' W 004°14'1010.6
2015-Jun-21 00:33N 45°13' W 004°26'1110.4
2015-Jun-20 23:33N 45°09' W 004°40'31 9.9
2015-Jun-20 20:23N 44°55' W 005°20'2910.1
2015-Jun-20 17:32N 44°43' W 005°56'2010.3
2015-Jun-20 15:33N 44°34' W 006°22'1010.0
2015-Jun-20 14:33N 44°30' W 006°35'2110.2
2015-Jun-20 12:32N 44°21' W 007°00'1010.1
2015-Jun-20 11:32N 44°17' W 007°14'21 9.9
2015-Jun-20 09:24N 44°07' W 007°40'  

Dump ship's entire track history